sensor_id;sensor_type;location;lat;lon;timestamp;temperature;humidity
71672;DHT22;62112;45.638;11.714;2022-10-16T00:01:20;24.00;68.20
71672;DHT22;62112;45.638;11.714;2022-10-16T00:03:47;23.90;68.60
71672;DHT22;62112;45.638;11.714;2022-10-16T00:06:14;23.90;68.40
71672;DHT22;62112;45.638;11.714;2022-10-16T00:08:41;23.90;68.80
71672;DHT22;62112;45.638;11.714;2022-10-16T00:11:11;23.90;68.60
71672;DHT22;62112;45.638;11.714;2022-10-16T00:13:38;23.80;68.80
71672;DHT22;62112;45.638;11.714;2022-10-16T00:16:06;23.90;69.00
71672;DHT22;62112;45.638;11.714;2022-10-16T00:18:32;23.90;68.90
71672;DHT22;62112;45.638;11.714;2022-10-16T00:21:07;23.80;68.80
71672;DHT22;62112;45.638;11.714;2022-10-16T00:23:33;23.80;70.20
71672;DHT22;62112;45.638;11.714;2022-10-16T00:26:02;23.80;69.50
71672;DHT22;62112;45.638;11.714;2022-10-16T00:28:28;23.80;69.70
71672;DHT22;62112;45.638;11.714;2022-10-16T00:30:54;23.80;69.90
71672;DHT22;62112;45.638;11.714;2022-10-16T00:33:21;23.80;70.10
71672;DHT22;62112;45.638;11.714;2022-10-16T00:35:47;23.70;70.70
71672;DHT22;62112;45.638;11.714;2022-10-16T00:38:13;23.80;70.20
71672;DHT22;62112;45.638;11.714;2022-10-16T00:40:39;23.80;70.70
71672;DHT22;62112;45.638;11.714;2022-10-16T00:43:44;23.70;71.40
71672;DHT22;62112;45.638;11.714;2022-10-16T00:46:40;23.80;71.90
71672;DHT22;62112;45.638;11.714;2022-10-16T00:49:17;23.80;71.70
71672;DHT22;62112;45.638;11.714;2022-10-16T00:51:46;23.70;71.10
71672;DHT22;62112;45.638;11.714;2022-10-16T00:54:19;23.70;70.70
71672;DHT22;62112;45.638;11.714;2022-10-16T00:56:46;23.70;71.00
71672;DHT22;62112;45.638;11.714;2022-10-16T00:59:26;23.70;70.30
71672;DHT22;62112;45.638;11.714;2022-10-16T01:01:53;23.70;70.40
71672;DHT22;62112;45.638;11.714;2022-10-16T01:04:19;23.70;70.30
71672;DHT22;62112;45.638;11.714;2022-10-16T01:09:35;23.70;70.50
71672;DHT22;62112;45.638;11.714;2022-10-16T01:12:15;23.70;70.10
71672;DHT22;62112;45.638;11.714;2022-10-16T01:14:53;23.60;71.60
71672;DHT22;62112;45.638;11.714;2022-10-16T01:20:24;23.70;70.80
71672;DHT22;62112;45.638;11.714;2022-10-16T01:23:21;23.60;72.10
71672;DHT22;62112;45.638;11.714;2022-10-16T01:28:26;23.60;70.70
71672;DHT22;62112;45.638;11.714;2022-10-16T01:30:58;23.60;72.10
71672;DHT22;62112;45.638;11.714;2022-10-16T01:33:30;23.60;72.20
71672;DHT22;62112;45.638;11.714;2022-10-16T01:36:06;23.60;72.10
71672;DHT22;62112;45.638;11.714;2022-10-16T01:38:36;23.60;71.60
71672;DHT22;62112;45.638;11.714;2022-10-16T01:41:55;23.50;72.40
71672;DHT22;62112;45.638;11.714;2022-10-16T01:44:06;23.60;72.20
71672;DHT22;62112;45.638;11.714;2022-10-16T01:46:35;23.50;72.00
71672;DHT22;62112;45.638;11.714;2022-10-16T01:49:03;23.60;71.80
71672;DHT22;62112;45.638;11.714;2022-10-16T01:51:29;23.50;71.80
71672;DHT22;62112;45.638;11.714;2022-10-16T01:53:58;23.50;72.00
71672;DHT22;62112;45.638;11.714;2022-10-16T01:56:25;23.60;72.20
71672;DHT22;62112;45.638;11.714;2022-10-16T01:58:57;23.50;72.20
71672;DHT22;62112;45.638;11.714;2022-10-16T02:01:27;23.50;72.10
71672;DHT22;62112;45.638;11.714;2022-10-16T02:03:58;23.60;72.10
71672;DHT22;62112;45.638;11.714;2022-10-16T02:06:24;23.50;72.10
71672;DHT22;62112;45.638;11.714;2022-10-16T02:08:51;23.60;72.40
71672;DHT22;62112;45.638;11.714;2022-10-16T02:11:17;23.50;72.50
71672;DHT22;62112;45.638;11.714;2022-10-16T02:13:46;23.50;72.80
71672;DHT22;62112;45.638;11.714;2022-10-16T02:16:14;23.50;73.30
71672;DHT22;62112;45.638;11.714;2022-10-16T02:18:41;23.40;73.20
71672;DHT22;62112;45.638;11.714;2022-10-16T02:21:29;23.50;73.00
71672;DHT22;62112;45.638;11.714;2022-10-16T02:24:01;23.50;72.60
71672;DHT22;62112;45.638;11.714;2022-10-16T02:29:08;23.50;72.60
71672;DHT22;62112;45.638;11.714;2022-10-16T02:31:40;23.40;72.70
71672;DHT22;62112;45.638;11.714;2022-10-16T02:34:06;23.40;72.70
71672;DHT22;62112;45.638;11.714;2022-10-16T02:36:35;23.40;72.70
71672;DHT22;62112;45.638;11.714;2022-10-16T02:39:03;23.40;72.70
71672;DHT22;62112;45.638;11.714;2022-10-16T02:41:30;23.40;72.80
71672;DHT22;62112;45.638;11.714;2022-10-16T02:43:56;23.50;72.80
71672;DHT22;62112;45.638;11.714;2022-10-16T02:46:22;23.50;72.60
71672;DHT22;62112;45.638;11.714;2022-10-16T02:48:48;23.40;72.70
71672;DHT22;62112;45.638;11.714;2022-10-16T02:51:14;23.40;72.70
71672;DHT22;62112;45.638;11.714;2022-10-16T02:53:39;23.40;72.50
71672;DHT22;62112;45.638;11.714;2022-10-16T02:56:05;23.40;72.90
71672;DHT22;62112;45.638;11.714;2022-10-16T02:58:31;23.40;72.90
71672;DHT22;62112;45.638;11.714;2022-10-16T03:00:57;23.50;72.80
71672;DHT22;62112;45.638;11.714;2022-10-16T03:03:23;23.40;72.90
71672;DHT22;62112;45.638;11.714;2022-10-16T03:05:49;23.40;72.70
71672;DHT22;62112;45.638;11.714;2022-10-16T03:08:14;23.40;73.00
71672;DHT22;62112;45.638;11.714;2022-10-16T03:10:41;23.40;73.00
71672;DHT22;62112;45.638;11.714;2022-10-16T03:13:06;23.40;72.90
71672;DHT22;62112;45.638;11.714;2022-10-16T03:15:32;23.40;72.90
71672;DHT22;62112;45.638;11.714;2022-10-16T03:17:59;23.40;72.90
71672;DHT22;62112;45.638;11.714;2022-10-16T03:20:25;23.40;72.90
71672;DHT22;62112;45.638;11.714;2022-10-16T03:22:51;23.40;73.00
71672;DHT22;62112;45.638;11.714;2022-10-16T03:25:16;23.40;72.90
71672;DHT22;62112;45.638;11.714;2022-10-16T03:27:42;23.30;72.70
71672;DHT22;62112;45.638;11.714;2022-10-16T03:30:09;23.40;72.80
71672;DHT22;62112;45.638;11.714;2022-10-16T03:32:35;23.40;72.80
71672;DHT22;62112;45.638;11.714;2022-10-16T03:35:00;23.40;73.10
71672;DHT22;62112;45.638;11.714;2022-10-16T03:37:26;23.40;72.80
71672;DHT22;62112;45.638;11.714;2022-10-16T03:39:52;23.40;73.00
71672;DHT22;62112;45.638;11.714;2022-10-16T03:42:18;23.50;72.90
71672;DHT22;62112;45.638;11.714;2022-10-16T03:44:44;23.40;72.80
71672;DHT22;62112;45.638;11.714;2022-10-16T03:47:10;23.40;73.10
71672;DHT22;62112;45.638;11.714;2022-10-16T03:49:35;23.40;73.00
71672;DHT22;62112;45.638;11.714;2022-10-16T03:52:01;23.40;73.30
71672;DHT22;62112;45.638;11.714;2022-10-16T03:54:27;23.30;73.00
71672;DHT22;62112;45.638;11.714;2022-10-16T03:56:53;23.40;72.90
71672;DHT22;62112;45.638;11.714;2022-10-16T03:59:18;23.30;73.20
71672;DHT22;62112;45.638;11.714;2022-10-16T04:01:44;23.40;73.20
71672;DHT22;62112;45.638;11.714;2022-10-16T04:04:10;23.30;73.10
71672;DHT22;62112;45.638;11.714;2022-10-16T04:06:36;23.30;73.00
71672;DHT22;62112;45.638;11.714;2022-10-16T04:09:02;23.30;72.90
71672;DHT22;62112;45.638;11.714;2022-10-16T04:11:28;23.30;73.50
71672;DHT22;62112;45.638;11.714;2022-10-16T04:13:53;23.30;73.30
71672;DHT22;62112;45.638;11.714;2022-10-16T04:16:19;23.30;73.20
71672;DHT22;62112;45.638;11.714;2022-10-16T04:18:45;23.30;73.40
71672;DHT22;62112;45.638;11.714;2022-10-16T04:21:11;23.20;73.30
71672;DHT22;62112;45.638;11.714;2022-10-16T04:23:37;23.30;73.40
71672;DHT22;62112;45.638;11.714;2022-10-16T04:26:03;23.30;73.20
71672;DHT22;62112;45.638;11.714;2022-10-16T04:28:29;23.30;73.60
71672;DHT22;62112;45.638;11.714;2022-10-16T04:30:55;23.30;73.40
71672;DHT22;62112;45.638;11.714;2022-10-16T04:33:21;23.20;73.60
71672;DHT22;62112;45.638;11.714;2022-10-16T04:35:47;23.20;73.40
71672;DHT22;62112;45.638;11.714;2022-10-16T04:38:12;23.20;73.50
71672;DHT22;62112;45.638;11.714;2022-10-16T04:40:38;23.30;73.60
71672;DHT22;62112;45.638;11.714;2022-10-16T04:43:05;23.20;73.40
71672;DHT22;62112;45.638;11.714;2022-10-16T04:45:31;23.30;73.60
71672;DHT22;62112;45.638;11.714;2022-10-16T04:47:58;23.20;73.60
71672;DHT22;62112;45.638;11.714;2022-10-16T04:50:24;23.30;73.50
71672;DHT22;62112;45.638;11.714;2022-10-16T04:52:50;23.30;73.30
71672;DHT22;62112;45.638;11.714;2022-10-16T04:55:16;23.20;73.60
71672;DHT22;62112;45.638;11.714;2022-10-16T04:57:42;23.30;73.40
71672;DHT22;62112;45.638;11.714;2022-10-16T05:00:08;23.20;73.30
71672;DHT22;62112;45.638;11.714;2022-10-16T05:02:34;23.30;73.60
71672;DHT22;62112;45.638;11.714;2022-10-16T05:05:00;23.30;73.60
71672;DHT22;62112;45.638;11.714;2022-10-16T05:07:26;23.20;73.60
71672;DHT22;62112;45.638;11.714;2022-10-16T05:09:51;23.20;73.70
71672;DHT22;62112;45.638;11.714;2022-10-16T05:12:18;23.20;73.50
71672;DHT22;62112;45.638;11.714;2022-10-16T05:14:43;23.30;73.70
71672;DHT22;62112;45.638;11.714;2022-10-16T05:17:09;23.30;73.70
71672;DHT22;62112;45.638;11.714;2022-10-16T05:19:35;23.20;73.90
71672;DHT22;62112;45.638;11.714;2022-10-16T05:22:01;23.20;73.80
71672;DHT22;62112;45.638;11.714;2022-10-16T05:24:27;23.20;73.60
71672;DHT22;62112;45.638;11.714;2022-10-16T05:26:53;23.20;73.70
71672;DHT22;62112;45.638;11.714;2022-10-16T05:29:19;23.20;73.90
71672;DHT22;62112;45.638;11.714;2022-10-16T05:31:45;23.20;73.70
71672;DHT22;62112;45.638;11.714;2022-10-16T05:34:11;23.20;73.80
71672;DHT22;62112;45.638;11.714;2022-10-16T05:36:37;23.20;74.20
71672;DHT22;62112;45.638;11.714;2022-10-16T05:39:03;23.30;74.10
71672;DHT22;62112;45.638;11.714;2022-10-16T05:41:29;23.20;74.20
71672;DHT22;62112;45.638;11.714;2022-10-16T05:43:55;23.20;73.90
71672;DHT22;62112;45.638;11.714;2022-10-16T05:46:20;23.20;73.90
71672;DHT22;62112;45.638;11.714;2022-10-16T05:48:46;23.10;74.00
71672;DHT22;62112;45.638;11.714;2022-10-16T05:51:13;23.20;74.20
71672;DHT22;62112;45.638;11.714;2022-10-16T05:53:40;23.20;73.80
71672;DHT22;62112;45.638;11.714;2022-10-16T05:56:07;23.20;74.30
71672;DHT22;62112;45.638;11.714;2022-10-16T05:58:36;23.20;74.30
71672;DHT22;62112;45.638;11.714;2022-10-16T06:01:05;23.20;74.40
71672;DHT22;62112;45.638;11.714;2022-10-16T06:03:33;23.20;74.40
71672;DHT22;62112;45.638;11.714;2022-10-16T06:05:59;23.20;74.40
71672;DHT22;62112;45.638;11.714;2022-10-16T06:08:25;23.30;74.30
71672;DHT22;62112;45.638;11.714;2022-10-16T06:11:13;23.30;74.30
71672;DHT22;62112;45.638;11.714;2022-10-16T06:13:39;23.20;74.40
71672;DHT22;62112;45.638;11.714;2022-10-16T06:16:08;23.20;73.90
71672;DHT22;62112;45.638;11.714;2022-10-16T06:18:34;23.20;74.10
71672;DHT22;62112;45.638;11.714;2022-10-16T06:21:06;23.20;74.00
71672;DHT22;62112;45.638;11.714;2022-10-16T06:23:32;23.10;74.20
71672;DHT22;62112;45.638;11.714;2022-10-16T06:26:11;23.10;74.20
71672;DHT22;62112;45.638;11.714;2022-10-16T06:28:38;23.20;74.20
71672;DHT22;62112;45.638;11.714;2022-10-16T06:31:05;23.20;74.00
71672;DHT22;62112;45.638;11.714;2022-10-16T06:33:31;23.20;74.00
71672;DHT22;62112;45.638;11.714;2022-10-16T06:36:05;23.20;74.10
71672;DHT22;62112;45.638;11.714;2022-10-16T06:38:32;23.20;73.90
71672;DHT22;62112;45.638;11.714;2022-10-16T06:40:58;23.20;73.80
71672;DHT22;62112;45.638;11.714;2022-10-16T06:43:24;23.30;73.80
71672;DHT22;62112;45.638;11.714;2022-10-16T06:45:56;23.20;73.70
71672;DHT22;62112;45.638;11.714;2022-10-16T06:48:22;23.20;73.40
71672;DHT22;62112;45.638;11.714;2022-10-16T06:51:02;23.20;73.60
71672;DHT22;62112;45.638;11.714;2022-10-16T06:53:31;23.10;73.40
71672;DHT22;62112;45.638;11.714;2022-10-16T06:55:57;23.20;73.20
71672;DHT22;62112;45.638;11.714;2022-10-16T06:58:23;23.20;73.10
71672;DHT22;62112;45.638;11.714;2022-10-16T07:00:55;23.20;73.10
71672;DHT22;62112;45.638;11.714;2022-10-16T07:03:22;23.20;73.20
71672;DHT22;62112;45.638;11.714;2022-10-16T07:05:48;23.20;72.90
71672;DHT22;62112;45.638;11.714;2022-10-16T07:08:14;23.20;72.70
71672;DHT22;62112;45.638;11.714;2022-10-16T07:10:39;23.20;72.90
71672;DHT22;62112;45.638;11.714;2022-10-16T07:13:05;23.10;73.10
71672;DHT22;62112;45.638;11.714;2022-10-16T07:15:33;23.10;72.90
71672;DHT22;62112;45.638;11.714;2022-10-16T07:17:59;23.10;73.00
71672;DHT22;62112;45.638;11.714;2022-10-16T07:20:25;23.10;73.20
71672;DHT22;62112;45.638;11.714;2022-10-16T07:22:52;23.20;73.30
71672;DHT22;62112;45.638;11.714;2022-10-16T07:25:18;23.20;73.20
71672;DHT22;62112;45.638;11.714;2022-10-16T07:27:44;23.20;73.00
71672;DHT22;62112;45.638;11.714;2022-10-16T07:30:10;23.20;73.20
71672;DHT22;62112;45.638;11.714;2022-10-16T07:32:36;23.20;73.10
71672;DHT22;62112;45.638;11.714;2022-10-16T07:35:02;23.20;73.20
71672;DHT22;62112;45.638;11.714;2022-10-16T07:37:28;23.20;73.00
71672;DHT22;62112;45.638;11.714;2022-10-16T07:39:53;23.30;72.90
71672;DHT22;62112;45.638;11.714;2022-10-16T07:42:19;23.30;73.10
71672;DHT22;62112;45.638;11.714;2022-10-16T07:44:45;23.20;73.00
71672;DHT22;62112;45.638;11.714;2022-10-16T07:47:11;23.20;72.80
71672;DHT22;62112;45.638;11.714;2022-10-16T07:49:37;23.30;72.90
71672;DHT22;62112;45.638;11.714;2022-10-16T07:52:03;23.30;72.70
71672;DHT22;62112;45.638;11.714;2022-10-16T07:54:30;23.30;72.80
71672;DHT22;62112;45.638;11.714;2022-10-16T07:56:56;23.30;72.40
71672;DHT22;62112;45.638;11.714;2022-10-16T07:59:22;23.30;72.70
71672;DHT22;62112;45.638;11.714;2022-10-16T08:01:49;23.30;72.60
71672;DHT22;62112;45.638;11.714;2022-10-16T08:04:16;23.40;72.40
71672;DHT22;62112;45.638;11.714;2022-10-16T08:06:43;23.40;72.40
71672;DHT22;62112;45.638;11.714;2022-10-16T08:09:09;23.40;72.30
71672;DHT22;62112;45.638;11.714;2022-10-16T08:11:36;23.40;72.40
71672;DHT22;62112;45.638;11.714;2022-10-16T08:14:02;23.40;72.00
71672;DHT22;62112;45.638;11.714;2022-10-16T08:16:30;23.40;72.00
71672;DHT22;62112;45.638;11.714;2022-10-16T08:18:56;23.50;71.80
71672;DHT22;62112;45.638;11.714;2022-10-16T08:21:23;23.50;71.60
71672;DHT22;62112;45.638;11.714;2022-10-16T08:23:52;23.50;71.70
71672;DHT22;62112;45.638;11.714;2022-10-16T08:26:18;23.50;71.60
71672;DHT22;62112;45.638;11.714;2022-10-16T08:28:44;23.60;71.40
71672;DHT22;62112;45.638;11.714;2022-10-16T08:31:15;23.60;71.20
71672;DHT22;62112;45.638;11.714;2022-10-16T08:33:42;23.70;68.60
71672;DHT22;62112;45.638;11.714;2022-10-16T08:36:09;23.70;68.70
71672;DHT22;62112;45.638;11.714;2022-10-16T08:38:35;23.60;68.90
71672;DHT22;62112;45.638;11.714;2022-10-16T08:41:36;23.70;68.00
71672;DHT22;62112;45.638;11.714;2022-10-16T08:47:24;23.80;67.40
71672;DHT22;62112;45.638;11.714;2022-10-16T08:50:12;23.90;67.60
71672;DHT22;62112;45.638;11.714;2022-10-16T08:52:41;23.90;67.20
71672;DHT22;62112;45.638;11.714;2022-10-16T08:55:30;23.90;67.60
71672;DHT22;62112;45.638;11.714;2022-10-16T08:57:58;23.80;67.00
71672;DHT22;62112;45.638;11.714;2022-10-16T09:00:24;23.90;67.30
71672;DHT22;62112;45.638;11.714;2022-10-16T09:06:09;23.90;67.40
71672;DHT22;62112;45.638;11.714;2022-10-16T09:09:15;24.00;67.10
71672;DHT22;62112;45.638;11.714;2022-10-16T09:17:37;24.00;66.80
71672;DHT22;62112;45.638;11.714;2022-10-16T09:22:48;24.00;66.60
71672;DHT22;62112;45.638;11.714;2022-10-16T09:25:20;24.00;66.30
71672;DHT22;62112;45.638;11.714;2022-10-16T09:27:48;24.10;66.60
71672;DHT22;62112;45.638;11.714;2022-10-16T09:30:17;24.20;66.40
71672;DHT22;62112;45.638;11.714;2022-10-16T09:32:44;24.20;66.50
71672;DHT22;62112;45.638;11.714;2022-10-16T09:35:20;24.20;66.10
71672;DHT22;62112;45.638;11.714;2022-10-16T09:37:50;24.30;66.20
71672;DHT22;62112;45.638;11.714;2022-10-16T09:40:28;24.30;66.00
71672;DHT22;62112;45.638;11.714;2022-10-16T09:48:51;24.30;66.10
71672;DHT22;62112;45.638;11.714;2022-10-16T09:51:26;24.40;66.10
71672;DHT22;62112;45.638;11.714;2022-10-16T09:54:00;24.50;65.80
71672;DHT22;62112;45.638;11.714;2022-10-16T09:56:29;24.50;65.70
71672;DHT22;62112;45.638;11.714;2022-10-16T09:58:58;24.40;65.90
71672;DHT22;62112;45.638;11.714;2022-10-16T10:01:30;24.50;65.20
71672;DHT22;62112;45.638;11.714;2022-10-16T10:03:57;24.50;65.10
71672;DHT22;62112;45.638;11.714;2022-10-16T10:06:34;24.60;65.20
71672;DHT22;62112;45.638;11.714;2022-10-16T10:09:22;24.50;65.30
71672;DHT22;62112;45.638;11.714;2022-10-16T10:11:59;24.60;65.20
71672;DHT22;62112;45.638;11.714;2022-10-16T10:14:38;24.60;65.10
71672;DHT22;62112;45.638;11.714;2022-10-16T10:22:21;24.70;64.50
71672;DHT22;62112;45.638;11.714;2022-10-16T10:27:59;24.70;64.80
71672;DHT22;62112;45.638;11.714;2022-10-16T10:30:44;24.70;65.10
71672;DHT22;62112;45.638;11.714;2022-10-16T10:35:58;24.70;64.80
71672;DHT22;62112;45.638;11.714;2022-10-16T10:38:53;24.70;64.70
71672;DHT22;62112;45.638;11.714;2022-10-16T10:41:54;24.70;64.80
71672;DHT22;62112;45.638;11.714;2022-10-16T10:44:32;24.70;65.00
71672;DHT22;62112;45.638;11.714;2022-10-16T10:47:12;24.80;64.60
71672;DHT22;62112;45.638;11.714;2022-10-16T10:49:53;24.70;65.50
71672;DHT22;62112;45.638;11.714;2022-10-16T10:55:08;24.80;65.40
71672;DHT22;62112;45.638;11.714;2022-10-16T11:03:45;24.80;65.30
71672;DHT22;62112;45.638;11.714;2022-10-16T11:09:13;24.90;64.70
71672;DHT22;62112;45.638;11.714;2022-10-16T11:11:55;24.90;64.40
71672;DHT22;62112;45.638;11.714;2022-10-16T11:14:28;24.80;64.60
71672;DHT22;62112;45.638;11.714;2022-10-16T11:16:58;24.80;64.80
71672;DHT22;62112;45.638;11.714;2022-10-16T11:22:23;24.90;65.10
71672;DHT22;62112;45.638;11.714;2022-10-16T11:28:07;24.80;65.60
71672;DHT22;62112;45.638;11.714;2022-10-16T11:36:19;24.80;66.10
71672;DHT22;62112;45.638;11.714;2022-10-16T11:41:59;24.70;66.20
71672;DHT22;62112;45.638;11.714;2022-10-16T11:50:28;24.70;66.50
71672;DHT22;62112;45.638;11.714;2022-10-16T11:53:14;24.80;66.40
71672;DHT22;62112;45.638;11.714;2022-10-16T11:55:44;24.70;66.70
71672;DHT22;62112;45.638;11.714;2022-10-16T12:03:56;24.70;66.10
71672;DHT22;62112;45.638;11.714;2022-10-16T12:06:37;24.70;66.00
71672;DHT22;62112;45.638;11.714;2022-10-16T12:09:22;24.70;66.40
71672;DHT22;62112;45.638;11.714;2022-10-16T12:11:51;24.80;65.80
71672;DHT22;62112;45.638;11.714;2022-10-16T12:17:27;24.80;66.30
71672;DHT22;62112;45.638;11.714;2022-10-16T12:23:03;24.70;66.30
71672;DHT22;62112;45.638;11.714;2022-10-16T12:25:37;24.80;66.40
71672;DHT22;62112;45.638;11.714;2022-10-16T12:30:42;24.80;67.00
71672;DHT22;62112;45.638;11.714;2022-10-16T12:33:51;24.80;66.80
71672;DHT22;62112;45.638;11.714;2022-10-16T12:36:34;24.70;67.00
71672;DHT22;62112;45.638;11.714;2022-10-16T12:39:00;24.80;67.00
71672;DHT22;62112;45.638;11.714;2022-10-16T12:41:29;24.70;66.90
71672;DHT22;62112;45.638;11.714;2022-10-16T12:43:56;24.80;66.80
71672;DHT22;62112;45.638;11.714;2022-10-16T12:51:40;24.70;67.10
71672;DHT22;62112;45.638;11.714;2022-10-16T12:57:09;24.70;67.30
71672;DHT22;62112;45.638;11.714;2022-10-16T13:13:58;24.70;68.70
71672;DHT22;62112;45.638;11.714;2022-10-16T13:24:50;24.70;69.00
71672;DHT22;62112;45.638;11.714;2022-10-16T13:30:28;24.70;68.60
71672;DHT22;62112;45.638;11.714;2022-10-16T13:33:01;24.70;68.40
71672;DHT22;62112;45.638;11.714;2022-10-16T13:35:30;24.80;68.70
71672;DHT22;62112;45.638;11.714;2022-10-16T13:38:15;24.70;68.50
71672;DHT22;62112;45.638;11.714;2022-10-16T13:41:03;24.80;67.60
71672;DHT22;62112;45.638;11.714;2022-10-16T13:43:41;24.80;67.70
71672;DHT22;62112;45.638;11.714;2022-10-16T13:46:16;24.90;67.10
71672;DHT22;62112;45.638;11.714;2022-10-16T13:48:42;24.90;67.90
71672;DHT22;62112;45.638;11.714;2022-10-16T13:51:17;24.80;68.70
71672;DHT22;62112;45.638;11.714;2022-10-16T13:53:44;24.90;68.20
71672;DHT22;62112;45.638;11.714;2022-10-16T13:56:15;24.90;68.80
71672;DHT22;62112;45.638;11.714;2022-10-16T13:58:42;24.90;67.70
71672;DHT22;62112;45.638;11.714;2022-10-16T14:01:40;24.90;67.20
71672;DHT22;62112;45.638;11.714;2022-10-16T14:04:11;25.00;66.20
71672;DHT22;62112;45.638;11.714;2022-10-16T14:06:41;25.10;66.30
71672;DHT22;62112;45.638;11.714;2022-10-16T14:09:14;25.00;66.40
71672;DHT22;62112;45.638;11.714;2022-10-16T14:11:51;25.10;66.40
71672;DHT22;62112;45.638;11.714;2022-10-16T14:14:22;25.10;66.40
71672;DHT22;62112;45.638;11.714;2022-10-16T14:16:48;25.10;65.50
71672;DHT22;62112;45.638;11.714;2022-10-16T14:19:28;25.00;66.30
71672;DHT22;62112;45.638;11.714;2022-10-16T14:21:56;25.20;65.40
71672;DHT22;62112;45.638;11.714;2022-10-16T14:24:27;25.10;65.90
71672;DHT22;62112;45.638;11.714;2022-10-16T14:26:53;25.20;66.10
71672;DHT22;62112;45.638;11.714;2022-10-16T14:29:22;25.20;65.50
71672;DHT22;62112;45.638;11.714;2022-10-16T14:31:59;25.20;65.50
71672;DHT22;62112;45.638;11.714;2022-10-16T14:34:29;25.20;64.70
71672;DHT22;62112;45.638;11.714;2022-10-16T14:36:59;25.20;65.00
71672;DHT22;62112;45.638;11.714;2022-10-16T14:39:27;25.20;65.10
71672;DHT22;62112;45.638;11.714;2022-10-16T14:41:56;25.20;65.20
71672;DHT22;62112;45.638;11.714;2022-10-16T14:44:28;25.20;65.30
71672;DHT22;62112;45.638;11.714;2022-10-16T14:46:55;25.30;64.50
71672;DHT22;62112;45.638;11.714;2022-10-16T14:49:22;25.20;64.90
71672;DHT22;62112;45.638;11.714;2022-10-16T14:51:49;25.20;65.00
71672;DHT22;62112;45.638;11.714;2022-10-16T14:54:19;25.20;64.60
71672;DHT22;62112;45.638;11.714;2022-10-16T14:56:52;25.20;64.60
71672;DHT22;62112;45.638;11.714;2022-10-16T15:01:56;25.20;64.40
71672;DHT22;62112;45.638;11.714;2022-10-16T15:04:22;25.20;64.50
71672;DHT22;62112;45.638;11.714;2022-10-16T15:06:48;25.20;64.50
71672;DHT22;62112;45.638;11.714;2022-10-16T15:09:13;25.30;64.60
71672;DHT22;62112;45.638;11.714;2022-10-16T15:11:40;25.30;64.60
71672;DHT22;62112;45.638;11.714;2022-10-16T15:14:11;25.30;64.10
71672;DHT22;62112;45.638;11.714;2022-10-16T15:16:37;25.30;64.30
71672;DHT22;62112;45.638;11.714;2022-10-16T15:19:03;25.20;64.70
71672;DHT22;62112;45.638;11.714;2022-10-16T15:21:30;25.20;64.30
71672;DHT22;62112;45.638;11.714;2022-10-16T15:23:58;25.30;64.00
71672;DHT22;62112;45.638;11.714;2022-10-16T15:26:26;25.20;63.90
71672;DHT22;62112;45.638;11.714;2022-10-16T15:28:52;25.20;63.80
71672;DHT22;62112;45.638;11.714;2022-10-16T15:31:18;25.10;63.90
71672;DHT22;62112;45.638;11.714;2022-10-16T15:33:44;25.10;64.20
71672;DHT22;62112;45.638;11.714;2022-10-16T15:36:13;25.20;64.10
71672;DHT22;62112;45.638;11.714;2022-10-16T15:38:39;25.10;64.40
71672;DHT22;62112;45.638;11.714;2022-10-16T15:41:04;25.10;63.70
71672;DHT22;62112;45.638;11.714;2022-10-16T15:43:30;25.10;64.60
71672;DHT22;62112;45.638;11.714;2022-10-16T15:46:04;25.10;64.20
71672;DHT22;62112;45.638;11.714;2022-10-16T15:48:32;25.10;64.70
71672;DHT22;62112;45.638;11.714;2022-10-16T15:50:59;25.10;65.10
71672;DHT22;62112;45.638;11.714;2022-10-16T15:53:25;25.00;64.80
71672;DHT22;62112;45.638;11.714;2022-10-16T15:55:51;25.00;65.10
71672;DHT22;62112;45.638;11.714;2022-10-16T15:58:17;25.00;65.50
71672;DHT22;62112;45.638;11.714;2022-10-16T16:00:43;24.90;65.90
71672;DHT22;62112;45.638;11.714;2022-10-16T16:03:09;24.90;65.90
71672;DHT22;62112;45.638;11.714;2022-10-16T16:05:41;24.90;65.70
71672;DHT22;62112;45.638;11.714;2022-10-16T16:08:15;24.80;66.10
71672;DHT22;62112;45.638;11.714;2022-10-16T16:10:44;24.90;66.40
71672;DHT22;62112;45.638;11.714;2022-10-16T16:13:10;24.90;66.80
71672;DHT22;62112;45.638;11.714;2022-10-16T16:15:39;24.80;66.90
71672;DHT22;62112;45.638;11.714;2022-10-16T16:18:06;24.90;67.70
71672;DHT22;62112;45.638;11.714;2022-10-16T16:20:32;24.80;68.00
71672;DHT22;62112;45.638;11.714;2022-10-16T16:22:58;24.90;67.80
71672;DHT22;62112;45.638;11.714;2022-10-16T16:25:24;24.80;68.10
71672;DHT22;62112;45.638;11.714;2022-10-16T16:27:50;24.80;69.00
71672;DHT22;62112;45.638;11.714;2022-10-16T16:30:15;24.80;69.40
71672;DHT22;62112;45.638;11.714;2022-10-16T16:32:44;24.80;69.80
71672;DHT22;62112;45.638;11.714;2022-10-16T16:35:10;24.80;69.90
71672;DHT22;62112;45.638;11.714;2022-10-16T16:37:35;24.80;70.70
71672;DHT22;62112;45.638;11.714;2022-10-16T16:40:01;24.80;70.60
71672;DHT22;62112;45.638;11.714;2022-10-16T16:42:27;24.70;70.70
71672;DHT22;62112;45.638;11.714;2022-10-16T16:44:53;24.70;71.10
71672;DHT22;62112;45.638;11.714;2022-10-16T16:47:19;24.70;71.50
71672;DHT22;62112;45.638;11.714;2022-10-16T16:49:45;24.60;71.70
71672;DHT22;62112;45.638;11.714;2022-10-16T16:52:12;24.70;71.70
71672;DHT22;62112;45.638;11.714;2022-10-16T16:54:38;24.60;72.00
71672;DHT22;62112;45.638;11.714;2022-10-16T16:57:04;24.70;71.90
71672;DHT22;62112;45.638;11.714;2022-10-16T16:59:30;24.60;72.20
71672;DHT22;62112;45.638;11.714;2022-10-16T17:01:59;24.60;72.20
71672;DHT22;62112;45.638;11.714;2022-10-16T17:04:25;24.70;72.50
71672;DHT22;62112;45.638;11.714;2022-10-16T17:06:55;24.60;72.50
71672;DHT22;62112;45.638;11.714;2022-10-16T17:09:21;24.60;72.70
71672;DHT22;62112;45.638;11.714;2022-10-16T17:11:47;24.60;73.00
71672;DHT22;62112;45.638;11.714;2022-10-16T17:14:14;24.60;72.80
71672;DHT22;62112;45.638;11.714;2022-10-16T17:16:41;24.60;73.20
71672;DHT22;62112;45.638;11.714;2022-10-16T17:19:12;24.60;73.40
71672;DHT22;62112;45.638;11.714;2022-10-16T17:21:39;24.50;73.50
71672;DHT22;62112;45.638;11.714;2022-10-16T17:24:05;24.60;73.50
71672;DHT22;62112;45.638;11.714;2022-10-16T17:26:33;24.50;73.80
71672;DHT22;62112;45.638;11.714;2022-10-16T17:29:03;24.50;74.00
71672;DHT22;62112;45.638;11.714;2022-10-16T17:31:32;24.50;74.30
71672;DHT22;62112;45.638;11.714;2022-10-16T17:33:59;24.50;74.50
71672;DHT22;62112;45.638;11.714;2022-10-16T17:36:26;24.50;74.90